sensor_id;sensor_type;location;lat;lon;timestamp;P1;durP1;ratioP1;P2;durP2;ratioP2
68455;SDS011;55437;55.046;38.838;2022-10-22T00:01:59;11.43;;;4.57;;
68455;SDS011;55437;55.046;38.838;2022-10-22T00:04:25;11.15;;;4.57;;
68455;SDS011;55437;55.046;38.838;2022-10-22T00:06:51;10.93;;;4.40;;
68455;SDS011;55437;55.046;38.838;2022-10-22T00:09:17;9.35;;;4.00;;
68455;SDS011;55437;55.046;38.838;2022-10-22T00:11:43;10.68;;;4.03;;
68455;SDS011;55437;55.046;38.838;2022-10-22T00:14:08;11.38;;;4.25;;
68455;SDS011;55437;55.046;38.838;2022-10-22T00:16:34;9.00;;;4.47;;
68455;SDS011;55437;55.046;38.838;2022-10-22T00:19:00;13.20;;;4.82;;
68455;SDS011;55437;55.046;38.838;2022-10-22T00:21:26;11.10;;;4.18;;
68455;SDS011;55437;55.046;38.838;2022-10-22T00:23:54;9.18;;;4.75;;
68455;SDS011;55437;55.046;38.838;2022-10-22T00:26:25;10.65;;;4.43;;
68455;SDS011;55437;55.046;38.838;2022-10-22T00:28:51;10.38;;;4.05;;
68455;SDS011;55437;55.046;38.838;2022-10-22T00:31:20;11.38;;;4.60;;
68455;SDS011;55437;55.046;38.838;2022-10-22T00:33:46;9.50;;;4.10;;
68455;SDS011;55437;55.046;38.838;2022-10-22T00:36:12;10.70;;;4.43;;
68455;SDS011;55437;55.046;38.838;2022-10-22T00:38:41;10.18;;;4.10;;
68455;SDS011;55437;55.046;38.838;2022-10-22T00:41:07;10.35;;;4.15;;
68455;SDS011;55437;55.046;38.838;2022-10-22T00:43:51;9.30;;;4.00;;
68455;SDS011;55437;55.046;38.838;2022-10-22T00:46:22;10.35;;;5.25;;
68455;SDS011;55437;55.046;38.838;2022-10-22T00:48:51;9.75;;;3.90;;
68455;SDS011;55437;55.046;38.838;2022-10-22T00:51:19;10.20;;;3.85;;
68455;SDS011;55437;55.046;38.838;2022-10-22T00:56:18;10.00;;;4.65;;
68455;SDS011;55437;55.046;38.838;2022-10-22T00:58:57;9.90;;;4.53;;
68455;SDS011;55437;55.046;38.838;2022-10-22T01:01:28;11.20;;;4.90;;
68455;SDS011;55437;55.046;38.838;2022-10-22T01:03:56;13.50;;;5.40;;
68455;SDS011;55437;55.046;38.838;2022-10-22T01:06:24;12.55;;;5.00;;
68455;SDS011;55437;55.046;38.838;2022-10-22T01:17:54;11.93;;;5.15;;
68455;SDS011;55437;55.046;38.838;2022-10-22T01:23:08;11.38;;;5.03;;
68455;SDS011;55437;55.046;38.838;2022-10-22T01:26:36;13.60;;;4.15;;
68455;SDS011;55437;55.046;38.838;2022-10-22T01:29:05;9.73;;;4.40;;
68455;SDS011;55437;55.046;38.838;2022-10-22T01:31:45;9.90;;;4.30;;
68455;SDS011;55437;55.046;38.838;2022-10-22T01:34:32;11.95;;;4.32;;
68455;SDS011;55437;55.046;38.838;2022-10-22T01:36:59;9.43;;;4.07;;
68455;SDS011;55437;55.046;38.838;2022-10-22T01:39:30;12.00;;;4.75;;
68455;SDS011;55437;55.046;38.838;2022-10-22T01:42:03;11.50;;;4.45;;
68455;SDS011;55437;55.046;38.838;2022-10-22T01:44:30;11.13;;;4.78;;
68455;SDS011;55437;55.046;38.838;2022-10-22T01:49:38;12.57;;;3.97;;
68455;SDS011;55437;55.046;38.838;2022-10-22T01:58:34;10.80;;;4.97;;
68455;SDS011;55437;55.046;38.838;2022-10-22T02:00:59;13.88;;;5.45;;
68455;SDS011;55437;55.046;38.838;2022-10-22T02:03:34;12.23;;;4.70;;
68455;SDS011;55437;55.046;38.838;2022-10-22T02:06:11;12.98;;;4.22;;
68455;SDS011;55437;55.046;38.838;2022-10-22T02:08:41;13.07;;;4.90;;
68455;SDS011;55437;55.046;38.838;2022-10-22T02:11:07;10.00;;;4.57;;
68455;SDS011;55437;55.046;38.838;2022-10-22T02:13:35;12.30;;;4.78;;
68455;SDS011;55437;55.046;38.838;2022-10-22T02:16:10;9.60;;;4.35;;
68455;SDS011;55437;55.046;38.838;2022-10-22T02:18:43;11.35;;;4.90;;
68455;SDS011;55437;55.046;38.838;2022-10-22T02:21:10;10.90;;;4.72;;
68455;SDS011;55437;55.046;38.838;2022-10-22T02:23:36;9.35;;;4.15;;
68455;SDS011;55437;55.046;38.838;2022-10-22T02:26:08;10.43;;;4.78;;
68455;SDS011;55437;55.046;38.838;2022-10-22T02:28:45;12.07;;;4.70;;
68455;SDS011;55437;55.046;38.838;2022-10-22T02:31:18;10.52;;;4.80;;
68455;SDS011;55437;55.046;38.838;2022-10-22T02:33:51;13.68;;;4.40;;
68455;SDS011;55437;55.046;38.838;2022-10-22T02:36:20;9.70;;;4.80;;
68455;SDS011;55437;55.046;38.838;2022-10-22T02:38:50;12.40;;;4.85;;
68455;SDS011;55437;55.046;38.838;2022-10-22T02:41:16;10.68;;;4.53;;
68455;SDS011;55437;55.046;38.838;2022-10-22T02:43:44;11.48;;;4.82;;
68455;SDS011;55437;55.046;38.838;2022-10-22T02:46:15;11.10;;;4.75;;
68455;SDS011;55437;55.046;38.838;2022-10-22T02:48:43;9.55;;;4.45;;
68455;SDS011;55437;55.046;38.838;2022-10-22T02:51:09;13.07;;;4.70;;
68455;SDS011;55437;55.046;38.838;2022-10-22T02:53:35;10.93;;;4.13;;
68455;SDS011;55437;55.046;38.838;2022-10-22T02:56:09;11.82;;;4.80;;
68455;SDS011;55437;55.046;38.838;2022-10-22T02:58:36;9.30;;;4.25;;
68455;SDS011;55437;55.046;38.838;2022-10-22T03:01:12;11.15;;;4.28;;
68455;SDS011;55437;55.046;38.838;2022-10-22T03:03:51;13.25;;;4.93;;
68455;SDS011;55437;55.046;38.838;2022-10-22T03:06:17;12.77;;;5.43;;
68455;SDS011;55437;55.046;38.838;2022-10-22T03:08:45;11.77;;;4.38;;
68455;SDS011;55437;55.046;38.838;2022-10-22T03:11:13;10.80;;;4.10;;
68455;SDS011;55437;55.046;38.838;2022-10-22T03:13:39;11.40;;;4.65;;
68455;SDS011;55437;55.046;38.838;2022-10-22T03:16:08;11.20;;;4.05;;
68455;SDS011;55437;55.046;38.838;2022-10-22T03:18:36;12.07;;;4.68;;
68455;SDS011;55437;55.046;38.838;2022-10-22T03:21:07;10.68;;;4.45;;
68455;SDS011;55437;55.046;38.838;2022-10-22T03:23:38;10.77;;;4.70;;
68455;SDS011;55437;55.046;38.838;2022-10-22T03:26:08;10.70;;;4.75;;
68455;SDS011;55437;55.046;38.838;2022-10-22T03:28:38;10.80;;;4.20;;
68455;SDS011;55437;55.046;38.838;2022-10-22T03:31:05;11.10;;;4.57;;
68455;SDS011;55437;55.046;38.838;2022-10-22T03:33:33;10.13;;;4.93;;
68455;SDS011;55437;55.046;38.838;2022-10-22T03:36:02;11.57;;;4.70;;
68455;SDS011;55437;55.046;38.838;2022-10-22T03:38:31;10.80;;;3.97;;
68455;SDS011;55437;55.046;38.838;2022-10-22T03:40:58;12.70;;;4.13;;
68455;SDS011;55437;55.046;38.838;2022-10-22T03:43:24;10.55;;;4.53;;
68455;SDS011;55437;55.046;38.838;2022-10-22T03:45:50;9.73;;;4.28;;
68455;SDS011;55437;55.046;38.838;2022-10-22T03:48:18;10.52;;;4.07;;
68455;SDS011;55437;55.046;38.838;2022-10-22T03:50:44;12.77;;;4.50;;
68455;SDS011;55437;55.046;38.838;2022-10-22T03:53:10;9.63;;;4.45;;
68455;SDS011;55437;55.046;38.838;2022-10-22T03:55:39;16.40;;;5.70;;
68455;SDS011;55437;55.046;38.838;2022-10-22T03:58:05;11.48;;;4.70;;
68455;SDS011;55437;55.046;38.838;2022-10-22T04:00:34;13.32;;;4.35;;
68455;SDS011;55437;55.046;38.838;2022-10-22T04:03:02;9.30;;;4.05;;
68455;SDS011;55437;55.046;38.838;2022-10-22T04:05:28;10.57;;;4.25;;
68455;SDS011;55437;55.046;38.838;2022-10-22T04:10:24;12.43;;;4.63;;
68455;SDS011;55437;55.046;38.838;2022-10-22T04:12:52;12.95;;;4.50;;
68455;SDS011;55437;55.046;38.838;2022-10-22T04:15:17;11.57;;;4.88;;
68455;SDS011;55437;55.046;38.838;2022-10-22T04:17:43;10.02;;;4.65;;
68455;SDS011;55437;55.046;38.838;2022-10-22T04:20:09;11.55;;;4.40;;
68455;SDS011;55437;55.046;38.838;2022-10-22T04:22:36;11.30;;;4.65;;
68455;SDS011;55437;55.046;38.838;2022-10-22T04:25:19;14.23;;;4.63;;
68455;SDS011;55437;55.046;38.838;2022-10-22T04:27:44;10.43;;;4.60;;
68455;SDS011;55437;55.046;38.838;2022-10-22T04:30:10;11.98;;;4.93;;
68455;SDS011;55437;55.046;38.838;2022-10-22T04:32:37;12.80;;;4.55;;
68455;SDS011;55437;55.046;38.838;2022-10-22T04:35:02;9.85;;;4.38;;
68455;SDS011;55437;55.046;38.838;2022-10-22T04:37:31;10.90;;;4.47;;
68455;SDS011;55437;55.046;38.838;2022-10-22T04:40:02;12.02;;;4.93;;
68455;SDS011;55437;55.046;38.838;2022-10-22T04:42:33;12.63;;;5.43;;
68455;SDS011;55437;55.046;38.838;2022-10-22T04:45:01;12.23;;;4.75;;
68455;SDS011;55437;55.046;38.838;2022-10-22T04:47:30;10.82;;;4.65;;
68455;SDS011;55437;55.046;38.838;2022-10-22T04:49:55;12.75;;;5.45;;
68455;SDS011;55437;55.046;38.838;2022-10-22T04:52:21;13.25;;;4.93;;
68455;SDS011;55437;55.046;38.838;2022-10-22T04:54:50;11.23;;;4.60;;
68455;SDS011;55437;55.046;38.838;2022-10-22T04:57:15;10.40;;;4.85;;
68455;SDS011;55437;55.046;38.838;2022-10-22T04:59:53;11.95;;;4.80;;
68455;SDS011;55437;55.046;38.838;2022-10-22T05:02:18;15.65;;;5.32;;
68455;SDS011;55437;55.046;38.838;2022-10-22T05:04:44;11.05;;;5.05;;
68455;SDS011;55437;55.046;38.838;2022-10-22T05:07:12;9.93;;;4.78;;
68455;SDS011;55437;55.046;38.838;2022-10-22T05:09:38;11.10;;;5.45;;
68455;SDS011;55437;55.046;38.838;2022-10-22T05:12:04;11.00;;;4.32;;
68455;SDS011;55437;55.046;38.838;2022-10-22T05:14:33;10.70;;;4.78;;
68455;SDS011;55437;55.046;38.838;2022-10-22T05:16:58;12.30;;;4.72;;
68455;SDS011;55437;55.046;38.838;2022-10-22T05:19:35;12.52;;;5.43;;
68455;SDS011;55437;55.046;38.838;2022-10-22T05:22:02;11.63;;;4.97;;
68455;SDS011;55437;55.046;38.838;2022-10-22T05:24:32;11.30;;;4.43;;
68455;SDS011;55437;55.046;38.838;2022-10-22T05:27:01;10.38;;;4.90;;
68455;SDS011;55437;55.046;38.838;2022-10-22T05:29:27;11.25;;;4.90;;
68455;SDS011;55437;55.046;38.838;2022-10-22T05:31:53;12.18;;;4.30;;
68455;SDS011;55437;55.046;38.838;2022-10-22T05:34:19;12.85;;;5.00;;
68455;SDS011;55437;55.046;38.838;2022-10-22T05:36:45;11.10;;;5.10;;
68455;SDS011;55437;55.046;38.838;2022-10-22T05:39:11;12.77;;;4.85;;
68455;SDS011;55437;55.046;38.838;2022-10-22T05:41:42;14.73;;;4.72;;
68455;SDS011;55437;55.046;38.838;2022-10-22T05:44:25;11.48;;;4.72;;
68455;SDS011;55437;55.046;38.838;2022-10-22T05:46:51;12.07;;;5.55;;
68455;SDS011;55437;55.046;38.838;2022-10-22T05:49:19;12.15;;;4.82;;
68455;SDS011;55437;55.046;38.838;2022-10-22T05:51:47;12.07;;;4.43;;
68455;SDS011;55437;55.046;38.838;2022-10-22T05:54:19;10.15;;;4.95;;
68455;SDS011;55437;55.046;38.838;2022-10-22T05:56:46;10.82;;;5.30;;
68455;SDS011;55437;55.046;38.838;2022-10-22T05:59:17;13.80;;;5.30;;
68455;SDS011;55437;55.046;38.838;2022-10-22T06:01:45;12.07;;;5.13;;
68455;SDS011;55437;55.046;38.838;2022-10-22T06:04:11;11.02;;;5.07;;
68455;SDS011;55437;55.046;38.838;2022-10-22T06:06:44;11.80;;;5.60;;
68455;SDS011;55437;55.046;38.838;2022-10-22T06:11:52;11.13;;;4.65;;
68455;SDS011;55437;55.046;38.838;2022-10-22T06:14:19;13.85;;;5.18;;
68455;SDS011;55437;55.046;38.838;2022-10-22T06:16:45;11.43;;;4.60;;
68455;SDS011;55437;55.046;38.838;2022-10-22T06:19:15;12.80;;;5.10;;
68455;SDS011;55437;55.046;38.838;2022-10-22T06:21:43;11.25;;;5.20;;
68455;SDS011;55437;55.046;38.838;2022-10-22T06:24:14;13.13;;;5.93;;
68455;SDS011;55437;55.046;38.838;2022-10-22T06:26:40;12.38;;;5.07;;
68455;SDS011;55437;55.046;38.838;2022-10-22T06:29:06;12.80;;;5.07;;
68455;SDS011;55437;55.046;38.838;2022-10-22T06:31:32;12.80;;;5.18;;
68455;SDS011;55437;55.046;38.838;2022-10-22T06:34:04;11.48;;;4.65;;
68455;SDS011;55437;55.046;38.838;2022-10-22T06:36:35;10.85;;;4.57;;
68455;SDS011;55437;55.046;38.838;2022-10-22T06:39:01;13.27;;;5.40;;
68455;SDS011;55437;55.046;38.838;2022-10-22T06:41:28;13.38;;;4.97;;
68455;SDS011;55437;55.046;38.838;2022-10-22T06:43:53;9.98;;;4.57;;
68455;SDS011;55437;55.046;38.838;2022-10-22T06:46:21;11.30;;;4.68;;
68455;SDS011;55437;55.046;38.838;2022-10-22T06:48:52;12.43;;;5.28;;
68455;SDS011;55437;55.046;38.838;2022-10-22T06:51:22;11.50;;;5.55;;
68455;SDS011;55437;55.046;38.838;2022-10-22T06:53:48;12.32;;;5.32;;
68455;SDS011;55437;55.046;38.838;2022-10-22T06:56:17;13.75;;;5.45;;
68455;SDS011;55437;55.046;38.838;2022-10-22T06:58:48;13.30;;;5.72;;
68455;SDS011;55437;55.046;38.838;2022-10-22T07:01:16;15.80;;;5.00;;
68455;SDS011;55437;55.046;38.838;2022-10-22T07:03:44;10.68;;;4.70;;
68455;SDS011;55437;55.046;38.838;2022-10-22T07:06:11;13.02;;;5.53;;
68455;SDS011;55437;55.046;38.838;2022-10-22T07:08:40;12.02;;;5.38;;
68455;SDS011;55437;55.046;38.838;2022-10-22T07:11:11;14.32;;;5.78;;
68455;SDS011;55437;55.046;38.838;2022-10-22T07:13:40;13.63;;;6.07;;
68455;SDS011;55437;55.046;38.838;2022-10-22T07:16:14;14.35;;;6.72;;
68455;SDS011;55437;55.046;38.838;2022-10-22T07:18:44;16.85;;;6.28;;
68455;SDS011;55437;55.046;38.838;2022-10-22T07:21:14;14.15;;;6.38;;
68455;SDS011;55437;55.046;38.838;2022-10-22T07:23:41;13.82;;;6.22;;
68455;SDS011;55437;55.046;38.838;2022-10-22T07:26:07;16.90;;;6.55;;
68455;SDS011;55437;55.046;38.838;2022-10-22T07:28:50;13.40;;;6.50;;
68455;SDS011;55437;55.046;38.838;2022-10-22T07:31:16;13.90;;;6.13;;
68455;SDS011;55437;55.046;38.838;2022-10-22T07:33:45;15.43;;;6.55;;
68455;SDS011;55437;55.046;38.838;2022-10-22T07:36:12;12.27;;;5.53;;
68455;SDS011;55437;55.046;38.838;2022-10-22T07:38:42;11.90;;;5.55;;
68455;SDS011;55437;55.046;38.838;2022-10-22T07:41:11;10.95;;;5.55;;
68455;SDS011;55437;55.046;38.838;2022-10-22T07:43:41;11.90;;;4.80;;
68455;SDS011;55437;55.046;38.838;2022-10-22T07:46:10;11.45;;;5.90;;
68455;SDS011;55437;55.046;38.838;2022-10-22T07:48:42;10.30;;;4.60;;
68455;SDS011;55437;55.046;38.838;2022-10-22T07:51:08;8.52;;;4.00;;
68455;SDS011;55437;55.046;38.838;2022-10-22T07:53:34;8.68;;;3.78;;
68455;SDS011;55437;55.046;38.838;2022-10-22T07:56:00;11.18;;;3.90;;
68455;SDS011;55437;55.046;38.838;2022-10-22T07:58:26;8.75;;;3.80;;
68455;SDS011;55437;55.046;38.838;2022-10-22T08:00:57;9.68;;;3.90;;
68455;SDS011;55437;55.046;38.838;2022-10-22T08:03:30;9.48;;;4.03;;
68455;SDS011;55437;55.046;38.838;2022-10-22T08:05:56;8.60;;;3.92;;
68455;SDS011;55437;55.046;38.838;2022-10-22T08:08:25;9.70;;;4.28;;
68455;SDS011;55437;55.046;38.838;2022-10-22T08:10:51;10.18;;;3.92;;
68455;SDS011;55437;55.046;38.838;2022-10-22T08:13:20;9.10;;;3.75;;
68455;SDS011;55437;55.046;38.838;2022-10-22T08:16:12;9.43;;;3.97;;
68455;SDS011;55437;55.046;38.838;2022-10-22T08:21:14;8.90;;;4.30;;
68455;SDS011;55437;55.046;38.838;2022-10-22T08:23:41;15.70;;;7.28;;
68455;SDS011;55437;55.046;38.838;2022-10-22T08:26:08;13.43;;;7.63;;
68455;SDS011;55437;55.046;38.838;2022-10-22T08:28:37;15.25;;;6.47;;
68455;SDS011;55437;55.046;38.838;2022-10-22T08:31:04;11.63;;;5.30;;
68455;SDS011;55437;55.046;38.838;2022-10-22T08:33:33;12.55;;;4.93;;
68455;SDS011;55437;55.046;38.838;2022-10-22T08:35:59;14.27;;;7.60;;
68455;SDS011;55437;55.046;38.838;2022-10-22T08:38:27;13.40;;;6.15;;
68455;SDS011;55437;55.046;38.838;2022-10-22T08:41:40;12.95;;;4.93;;
68455;SDS011;55437;55.046;38.838;2022-10-22T08:43:59;13.57;;;5.10;;
68455;SDS011;55437;55.046;38.838;2022-10-22T08:49:36;12.05;;;5.88;;
68455;SDS011;55437;55.046;38.838;2022-10-22T08:52:07;12.23;;;6.28;;
68455;SDS011;55437;55.046;38.838;2022-10-22T08:54:48;11.05;;;4.90;;
68455;SDS011;55437;55.046;38.838;2022-10-22T09:00:01;9.52;;;4.55;;
68455;SDS011;55437;55.046;38.838;2022-10-22T09:07:52;11.60;;;5.40;;
68455;SDS011;55437;55.046;38.838;2022-10-22T09:10:20;11.48;;;5.70;;
68455;SDS011;55437;55.046;38.838;2022-10-22T09:12:52;10.30;;;4.68;;
68455;SDS011;55437;55.046;38.838;2022-10-22T09:15:18;12.82;;;4.82;;
68455;SDS011;55437;55.046;38.838;2022-10-22T09:20:52;12.77;;;5.65;;
68455;SDS011;55437;55.046;38.838;2022-10-22T09:25:55;10.02;;;3.97;;
68455;SDS011;55437;55.046;38.838;2022-10-22T09:28:22;9.05;;;3.90;;
68455;SDS011;55437;55.046;38.838;2022-10-22T09:30:57;9.70;;;4.40;;
68455;SDS011;55437;55.046;38.838;2022-10-22T09:33:26;10.77;;;5.55;;
68455;SDS011;55437;55.046;38.838;2022-10-22T09:36:00;10.93;;;4.25;;
68455;SDS011;55437;55.046;38.838;2022-10-22T09:38:29;8.68;;;3.67;;
68455;SDS011;55437;55.046;38.838;2022-10-22T09:41:04;9.63;;;4.57;;
68455;SDS011;55437;55.046;38.838;2022-10-22T09:43:49;10.13;;;4.47;;
68455;SDS011;55437;55.046;38.838;2022-10-22T09:46:21;10.15;;;4.93;;
68455;SDS011;55437;55.046;38.838;2022-10-22T09:53:57;8.07;;;3.80;;
68455;SDS011;55437;55.046;38.838;2022-10-22T09:56:29;12.65;;;4.20;;
68455;SDS011;55437;55.046;38.838;2022-10-22T09:59:01;12.27;;;5.43;;
68455;SDS011;55437;55.046;38.838;2022-10-22T10:01:29;11.15;;;5.32;;
68455;SDS011;55437;55.046;38.838;2022-10-22T10:04:22;17.92;;;8.80;;
68455;SDS011;55437;55.046;38.838;2022-10-22T10:06:51;15.02;;;8.13;;
68455;SDS011;55437;55.046;38.838;2022-10-22T10:09:23;15.75;;;8.10;;
68455;SDS011;55437;55.046;38.838;2022-10-22T10:12:13;11.63;;;6.10;;
68455;SDS011;55437;55.046;38.838;2022-10-22T10:26:55;11.05;;;4.90;;
68455;SDS011;55437;55.046;38.838;2022-10-22T10:40:32;9.18;;;3.13;;
68455;SDS011;55437;55.046;38.838;2022-10-22T10:46:32;14.18;;;5.38;;
68455;SDS011;55437;55.046;38.838;2022-10-22T10:49:32;12.27;;;5.80;;
68455;SDS011;55437;55.046;38.838;2022-10-22T11:00:15;8.55;;;3.92;;
68455;SDS011;55437;55.046;38.838;2022-10-22T11:08:23;8.93;;;3.70;;
68455;SDS011;55437;55.046;38.838;2022-10-22T11:10:58;11.15;;;4.53;;
68455;SDS011;55437;55.046;38.838;2022-10-22T11:13:48;10.95;;;5.25;;
68455;SDS011;55437;55.046;38.838;2022-10-22T11:16:18;12.73;;;6.22;;
68455;SDS011;55437;55.046;38.838;2022-10-22T11:24:51;7.90;;;3.10;;
68455;SDS011;55437;55.046;38.838;2022-10-22T11:30:14;7.28;;;2.92;;
68455;SDS011;55437;55.046;38.838;2022-10-22T11:32:54;7.50;;;2.65;;
68455;SDS011;55437;55.046;38.838;2022-10-22T11:35:24;12.55;;;7.47;;
68455;SDS011;55437;55.046;38.838;2022-10-22T11:38:23;8.38;;;2.90;;
68455;SDS011;55437;55.046;38.838;2022-10-22T11:40:55;6.53;;;2.60;;
68455;SDS011;55437;55.046;38.838;2022-10-22T11:43:31;9.93;;;4.40;;
68455;SDS011;55437;55.046;38.838;2022-10-22T11:49:04;9.35;;;3.30;;
68455;SDS011;55437;55.046;38.838;2022-10-22T11:51:40;9.57;;;3.70;;
68455;SDS011;55437;55.046;38.838;2022-10-22T11:57:35;7.88;;;3.33;;
68455;SDS011;55437;55.046;38.838;2022-10-22T12:00:21;9.15;;;3.47;;
68455;SDS011;55437;55.046;38.838;2022-10-22T12:03:01;11.60;;;4.28;;
68455;SDS011;55437;55.046;38.838;2022-10-22T12:08:57;8.60;;;3.63;;
68455;SDS011;55437;55.046;38.838;2022-10-22T12:11:39;10.20;;;3.67;;
68455;SDS011;55437;55.046;38.838;2022-10-22T12:14:21;16.40;;;8.02;;
68455;SDS011;55437;55.046;38.838;2022-10-22T12:19:26;11.35;;;4.15;;
68455;SDS011;55437;55.046;38.838;2022-10-22T12:21:59;13.20;;;4.93;;
68455;SDS011;55437;55.046;38.838;2022-10-22T12:24:33;17.45;;;5.72;;
68455;SDS011;55437;55.046;38.838;2022-10-22T12:27:13;10.88;;;4.40;;
68455;SDS011;55437;55.046;38.838;2022-10-22T12:29:48;9.73;;;3.28;;
68455;SDS011;55437;55.046;38.838;2022-10-22T12:32:18;9.07;;;3.35;;
68455;SDS011;55437;55.046;38.838;2022-10-22T12:34:45;7.05;;;2.75;;
68455;SDS011;55437;55.046;38.838;2022-10-22T12:37:20;8.70;;;3.35;;
68455;SDS011;55437;55.046;38.838;2022-10-22T12:39:46;10.02;;;3.45;;
68455;SDS011;55437;55.046;38.838;2022-10-22T12:42:16;9.35;;;3.45;;
68455;SDS011;55437;55.046;38.838;2022-10-22T12:44:42;10.63;;;2.72;;
68455;SDS011;55437;55.046;38.838;2022-10-22T12:47:15;9.65;;;3.60;;
68455;SDS011;55437;55.046;38.838;2022-10-22T12:49:46;10.45;;;3.60;;
68455;SDS011;55437;55.046;38.838;2022-10-22T12:52:20;11.43;;;3.33;;
68455;SDS011;55437;55.046;38.838;2022-10-22T12:54:50;8.05;;;2.70;;
68455;SDS011;55437;55.046;38.838;2022-10-22T12:57:17;7.90;;;2.50;;
68455;SDS011;55437;55.046;38.838;2022-10-22T12:59:47;7.95;;;2.45;;
68455;SDS011;55437;55.046;38.838;2022-10-22T13:02:20;5.25;;;1.83;;
68455;SDS011;55437;55.046;38.838;2022-10-22T13:07:53;9.48;;;2.63;;
68455;SDS011;55437;55.046;38.838;2022-10-22T13:10:39;7.80;;;2.83;;
68455;SDS011;55437;55.046;38.838;2022-10-22T13:13:27;7.85;;;3.00;;
68455;SDS011;55437;55.046;38.838;2022-10-22T13:16:16;6.07;;;1.98;;
68455;SDS011;55437;55.046;38.838;2022-10-22T13:18:53;7.70;;;2.65;;
68455;SDS011;55437;55.046;38.838;2022-10-22T13:21:24;8.30;;;2.70;;
68455;SDS011;55437;55.046;38.838;2022-10-22T13:24:18;6.93;;;2.70;;
68455;SDS011;55437;55.046;38.838;2022-10-22T13:26:55;6.80;;;2.30;;
68455;SDS011;55437;55.046;38.838;2022-10-22T13:29:22;6.57;;;2.28;;
68455;SDS011;55437;55.046;38.838;2022-10-22T13:32:17;6.50;;;2.25;;
68455;SDS011;55437;55.046;38.838;2022-10-22T13:34:52;7.20;;;2.35;;
68455;SDS011;55437;55.046;38.838;2022-10-22T13:37:38;7.28;;;2.08;;
68455;SDS011;55437;55.046;38.838;2022-10-22T13:40:09;9.50;;;2.95;;
68455;SDS011;55437;55.046;38.838;2022-10-22T13:42:38;10.35;;;3.97;;
68455;SDS011;55437;55.046;38.838;2022-10-22T13:45:04;10.45;;;3.28;;
68455;SDS011;55437;55.046;38.838;2022-10-22T13:47:31;14.68;;;3.75;;
68455;SDS011;55437;55.046;38.838;2022-10-22T13:49:59;12.18;;;3.88;;
68455;SDS011;55437;55.046;38.838;2022-10-22T13:52:33;10.93;;;3.78;;
68455;SDS011;55437;55.046;38.838;2022-10-22T14:00:48;8.63;;;2.67;;
68455;SDS011;55437;55.046;38.838;2022-10-22T14:03:22;18.00;;;3.60;;
68455;SDS011;55437;55.046;38.838;2022-10-22T14:05:57;7.13;;;2.55;;
68455;SDS011;55437;55.046;38.838;2022-10-22T14:08:23;9.88;;;2.97;;
68455;SDS011;55437;55.046;38.838;2022-10-22T14:10:51;8.40;;;3.10;;
68455;SDS011;55437;55.046;38.838;2022-10-22T14:13:18;9.25;;;3.33;;
68455;SDS011;55437;55.046;38.838;2022-10-22T14:15:48;10.10;;;3.60;;
68455;SDS011;55437;55.046;38.838;2022-10-22T14:18:19;10.57;;;4.43;;
68455;SDS011;55437;55.046;38.838;2022-10-22T14:21:00;10.35;;;4.18;;
68455;SDS011;55437;55.046;38.838;2022-10-22T14:23:34;9.13;;;3.75;;
68455;SDS011;55437;55.046;38.838;2022-10-22T14:26:01;10.80;;;3.35;;
68455;SDS011;55437;55.046;38.838;2022-10-22T14:28:27;10.15;;;4.13;;
68455;SDS011;55437;55.046;38.838;2022-10-22T14:30:56;10.82;;;4.30;;
68455;SDS011;55437;55.046;38.838;2022-10-22T14:33:26;10.50;;;3.30;;
68455;SDS011;55437;55.046;38.838;2022-10-22T14:38:22;9.57;;;3.40;;
68455;SDS011;55437;55.046;38.838;2022-10-22T14:40:51;10.23;;;3.45;;
68455;SDS011;55437;55.046;38.838;2022-10-22T14:43:24;10.57;;;2.90;;
68455;SDS011;55437;55.046;38.838;2022-10-22T14:45:54;13.85;;;3.70;;
68455;SDS011;55437;55.046;38.838;2022-10-22T14:48:20;11.20;;;4.22;;
68455;SDS011;55437;55.046;38.838;2022-10-22T14:50:51;12.48;;;4.10;;
68455;SDS011;55437;55.046;38.838;2022-10-22T14:53:19;8.60;;;3.60;;
68455;SDS011;55437;55.046;38.838;2022-10-22T14:55:50;9.80;;;3.97;;
68455;SDS011;55437;55.046;38.838;2022-10-22T15:00:45;10.63;;;3.92;;
68455;SDS011;55437;55.046;38.838;2022-10-22T15:03:11;10.90;;;4.05;;
68455;SDS011;55437;55.046;38.838;2022-10-22T15:05:40;17.92;;;6.78;;
68455;SDS011;55437;55.046;38.838;2022-10-22T15:08:25;15.15;;;5.68;;
68455;SDS011;55437;55.046;38.838;2022-10-22T15:13:29;16.33;;;6.05;;
68455;SDS011;55437;55.046;38.838;2022-10-22T15:16:00;14.23;;;5.88;;
68455;SDS011;55437;55.046;38.838;2022-10-22T15:18:29;17.08;;;6.05;;
68455;SDS011;55437;55.046;38.838;2022-10-22T15:21:12;13.52;;;6.03;;
68455;SDS011;55437;55.046;38.838;2022-10-22T15:23:43;14.43;;;6.15;;
68455;SDS011;55437;55.046;38.838;2022-10-22T15:26:09;13.02;;;5.32;;
68455;SDS011;55437;55.046;38.838;2022-10-22T15:28:39;15.40;;;6.55;;
68455;SDS011;55437;55.046;38.838;2022-10-22T15:31:09;14.75;;;5.45;;
68455;SDS011;55437;55.046;38.838;2022-10-22T15:33:40;16.75;;;6.13;;
68455;SDS011;55437;55.046;38.838;2022-10-22T15:36:08;13.13;;;5.22;;
68455;SDS011;55437;55.046;38.838;2022-10-22T15:38:38;18.65;;;5.93;;
68455;SDS011;55437;55.046;38.838;2022-10-22T15:41:05;14.27;;;4.55;;
68455;SDS011;55437;55.046;38.838;2022-10-22T15:43:35;18.48;;;8.32;;
68455;SDS011;55437;55.046;38.838;2022-10-22T15:46:14;16.10;;;6.45;;
68455;SDS011;55437;55.046;38.838;2022-10-22T15:48:45;13.45;;;5.88;;
68455;SDS011;55437;55.046;38.838;2022-10-22T15:51:12;15.73;;;5.45;;
68455;SDS011;55437;55.046;38.838;2022-10-22T15:53:40;11.55;;;5.25;;
68455;SDS011;55437;55.046;38.838;2022-10-22T15:56:06;9.82;;;4.15;;
68455;SDS011;55437;55.046;38.838;2022-10-22T15:58:33;13.93;;;5.25;;
68455;SDS011;55437;55.046;38.838;2022-10-22T16:01:07;11.98;;;4.53;;
68455;SDS011;55437;55.046;38.838;2022-10-22T16:03:40;13.05;;;4.90;;
68455;SDS011;55437;55.046;38.838;2022-10-22T16:06:08;10.30;;;4.50;;
68455;SDS011;55437;55.046;38.838;2022-10-22T16:08:37;12.23;;;4.40;;
68455;SDS011;55437;55.046;38.838;2022-10-22T16:11:05;10.65;;;4.07;;
68455;SDS011;55437;55.046;38.838;2022-10-22T16:13:31;10.30;;;3.78;;
68455;SDS011;55437;55.046;38.838;2022-10-22T16:15:57;12.82;;;4.80;;
68455;SDS011;55437;55.046;38.838;2022-10-22T16:18:23;10.68;;;4.63;;
68455;SDS011;55437;55.046;38.838;2022-10-22T16:20:49;11.25;;;4.85;;
68455;SDS011;55437;55.046;38.838;2022-10-22T16:23:15;11.57;;;4.10;;
68455;SDS011;55437;55.046;38.838;2022-10-22T16:25:43;11.38;;;4.78;;
68455;SDS011;55437;55.046;38.838;2022-10-22T16:28:11;9.52;;;3.92;;
68455;SDS011;55437;55.046;38.838;2022-10-22T16:30:38;13.25;;;3.40;;
68455;SDS011;55437;55.046;38.838;2022-10-22T16:33:06;11.43;;;4.30;;
68455;SDS011;55437;55.046;38.838;2022-10-22T16:35:32;9.30;;;3.40;;
68455;SDS011;55437;55.046;38.838;2022-10-22T16:38:06;10.82;;;3.33;;
68455;SDS011;55437;55.046;38.838;2022-10-22T16:40:43;9.48;;;3.55;;
68455;SDS011;55437;55.046;38.838;2022-10-22T16:43:11;9.40;;;3.55;;
68455;SDS011;55437;55.046;38.838;2022-10-22T16:45:37;13.20;;;4.38;;
68455;SDS011;55437;55.046;38.838;2022-10-22T16:48:21;10.68;;;4.97;;
68455;SDS011;55437;55.046;38.838;2022-10-22T16:50:46;9.23;;;3.97;;
68455;SDS011;55437;55.046;38.838;2022-10-22T16:53:14;9.40;;;3.78;;
68455;SDS011;55437;55.046;38.838;2022-10-22T16:55:43;11.98;;;4.20;;
68455;SDS011;55437;55.046;38.838;2022-10-22T16:58:11;12.23;;;4.85;;